createdAt,value
2022-10-30T00:00:21.907Z,12.83
2022-10-30T00:01:23.726Z,12.85
2022-10-30T00:02:25.365Z,12.88
2022-10-30T00:03:27.057Z,12.92
2022-10-30T00:04:28.800Z,12.95
2022-10-30T00:05:30.476Z,12.94
2022-10-30T00:06:31.998Z,12.95
2022-10-30T00:07:33.993Z,12.93
2022-10-30T00:08:35.762Z,12.94
2022-10-30T00:09:37.384Z,12.95
2022-10-30T00:10:39.189Z,12.94
2022-10-30T00:11:41.699Z,12.92
2022-10-30T00:12:43.753Z,12.90
2022-10-30T00:13:45.632Z,12.89
2022-10-30T00:14:47.216Z,12.87
2022-10-30T00:15:53.858Z,12.86
2022-10-30T00:16:55.399Z,12.88
2022-10-30T00:17:57.219Z,12.88
2022-10-30T00:18:58.987Z,12.89
2022-10-30T00:20:00.542Z,12.90
2022-10-30T00:21:06.717Z,12.88
2022-10-30T00:22:09.178Z,12.91
2022-10-30T00:23:10.792Z,12.89
2022-10-30T00:24:12.369Z,12.88
2022-10-30T00:25:14.007Z,12.86
2022-10-30T00:26:16.617Z,12.87
2022-10-30T00:27:18.605Z,12.86
2022-10-30T00:28:20.193Z,12.87
2022-10-30T00:29:25.070Z,12.87
2022-10-30T00:30:26.670Z,12.87
2022-10-30T00:31:28.220Z,12.87
2022-10-30T00:32:29.836Z,12.88
2022-10-30T00:33:32.021Z,12.88
2022-10-30T00:34:33.693Z,12.90
2022-10-30T00:35:35.311Z,12.88
2022-10-30T00:36:36.887Z,12.88
2022-10-30T00:37:38.546Z,12.87
2022-10-30T00:38:40.102Z,12.85
2022-10-30T00:39:41.749Z,12.85
2022-10-30T00:40:43.355Z,12.82
2022-10-30T00:41:45.436Z,12.83
2022-10-30T00:42:47.021Z,12.81
2022-10-30T00:43:49.183Z,12.87
2022-10-30T00:44:53.012Z,12.87
2022-10-30T00:45:56.592Z,12.83
2022-10-30T00:47:04.596Z,12.86
2022-10-30T00:48:06.260Z,12.87
2022-10-30T00:49:15.348Z,12.81
2022-10-30T00:51:37.527Z,12.78
2022-10-30T00:52:52.110Z,12.65
2022-10-30T00:53:56.665Z,12.78
2022-10-30T00:55:03.057Z,12.79
2022-10-30T00:56:07.207Z,12.77
2022-10-30T00:57:10.027Z,12.75
2022-10-30T00:58:16.359Z,12.74
2022-10-30T00:59:26.478Z,12.79
2022-10-30T01:00:29.248Z,12.78
2022-10-30T01:01:35.872Z,12.77
2022-10-30T01:02:39.616Z,12.77
2022-10-30T01:03:41.931Z,12.73
2022-10-30T01:04:46.116Z,12.69
2022-10-30T01:05:52.150Z,12.69
2022-10-30T01:06:53.913Z,12.68
2022-10-30T01:07:55.710Z,12.68
2022-10-30T01:08:59.993Z,12.67
2022-10-30T01:10:02.132Z,12.67
2022-10-30T01:11:04.689Z,12.65
2022-10-30T01:12:06.771Z,12.51
2022-10-30T01:13:08.501Z,12.64
2022-10-30T01:14:12.085Z,12.63
2022-10-30T01:15:14.543Z,12.57
2022-10-30T01:16:21.892Z,12.64
2022-10-30T01:17:38.651Z,12.66
2022-10-30T01:19:08.337Z,12.66
2022-10-30T01:20:19.047Z,12.66
2022-10-30T01:21:52.314Z,12.63
2022-10-30T01:23:07.582Z,12.64
2022-10-30T01:24:30.370Z,12.63
2022-10-30T01:25:47.463Z,12.63
2022-10-30T01:27:06.868Z,12.61
2022-10-30T01:28:35.995Z,12.59
2022-10-30T01:30:00.932Z,12.56
2022-10-30T01:31:35.236Z,12.52
2022-10-30T01:32:47.102Z,12.51
2022-10-30T01:33:59.714Z,12.47
2022-10-30T01:35:34.765Z,12.45
2022-10-30T01:36:46.273Z,12.40
2022-10-30T01:37:55.760Z,12.38
2022-10-30T01:39:02.774Z,12.38
2022-10-30T01:40:09.585Z,12.34
2022-10-30T01:41:11.162Z,12.34
2022-10-30T01:42:38.062Z,12.32
2022-10-30T01:43:41.307Z,12.31
2022-10-30T01:44:42.908Z,12.30
2022-10-30T01:46:02.645Z,12.29
2022-10-30T01:47:27.277Z,12.26
2022-10-30T01:48:39.418Z,12.24
2022-10-30T01:50:21.437Z,12.23
2022-10-30T01:51:32.121Z,12.23
2022-10-30T01:53:21.367Z,12.20
2022-10-30T01:54:46.547Z,12.16
2022-10-30T01:55:50.798Z,12.15
2022-10-30T01:57:12.798Z,12.14
2022-10-30T01:58:22.089Z,12.15
2022-10-30T01:59:32.860Z,12.12
2022-10-30T02:00:36.338Z,12.13
2022-10-30T02:01:39.993Z,12.11
2022-10-30T02:02:42.707Z,12.10
2022-10-30T02:03:45.732Z,12.09
2022-10-30T02:04:47.350Z,12.12
2022-10-30T02:05:51.229Z,12.07
2022-10-30T02:06:53.076Z,12.04
2022-10-30T02:07:54.855Z,12.00
2022-10-30T02:08:57.051Z,12.02
2022-10-30T02:09:59.262Z,12.03
2022-10-30T02:11:02.574Z,12.02
2022-10-30T02:12:04.555Z,11.99
2022-10-30T02:13:06.314Z,11.96
2022-10-30T02:14:09.696Z,11.97
2022-10-30T02:15:11.860Z,11.92
2022-10-30T02:16:13.579Z,11.97
2022-10-30T02:17:15.703Z,11.97
2022-10-30T02:18:17.272Z,11.96
2022-10-30T02:19:19.123Z,11.95
2022-10-30T02:20:20.754Z,11.91
2022-10-30T02:21:22.533Z,11.89
2022-10-30T02:22:24.946Z,11.85
2022-10-30T02:23:26.634Z,11.86
2022-10-30T02:24:29.620Z,11.86
2022-10-30T02:25:31.244Z,11.87
2022-10-30T02:26:33.148Z,11.88
2022-10-30T02:27:34.708Z,11.88
2022-10-30T02:28:36.698Z,11.87
2022-10-30T02:29:38.349Z,11.86
2022-10-30T02:30:44.121Z,11.81
2022-10-30T02:31:45.862Z,11.78
2022-10-30T02:32:47.577Z,11.70
2022-10-30T02:33:49.442Z,11.73
2022-10-30T02:34:51.005Z,11.72
2022-10-30T02:35:53.282Z,11.72
2022-10-30T02:36:54.838Z,11.70
2022-10-30T02:37:57.124Z,11.66
2022-10-30T02:39:00.114Z,11.66
2022-10-30T02:40:03.148Z,11.64
2022-10-30T02:41:04.803Z,11.60
2022-10-30T02:42:06.450Z,11.59
2022-10-30T02:43:08.217Z,11.59
2022-10-30T02:44:09.783Z,11.58
2022-10-30T02:45:11.812Z,11.57
2022-10-30T02:46:13.540Z,11.58
2022-10-30T02:47:15.236Z,11.60
2022-10-30T02:48:16.870Z,11.62
2022-10-30T02:49:18.485Z,11.67
2022-10-30T02:50:20.148Z,11.68
2022-10-30T02:51:21.838Z,11.69
2022-10-30T02:52:23.417Z,11.72
2022-10-30T02:53:24.964Z,11.72
2022-10-30T02:54:26.694Z,11.70
2022-10-30T02:55:28.309Z,11.68
2022-10-30T02:56:29.942Z,11.65
2022-10-30T02:57:32.119Z,11.62
2022-10-30T02:58:33.877Z,11.56
2022-10-30T02:59:35.527Z,11.54
2022-10-30T03:00:37.117Z,11.51
2022-10-30T03:01:38.978Z,11.49
2022-10-30T03:02:40.739Z,11.47
2022-10-30T03:03:42.866Z,11.44
2022-10-30T03:04:44.445Z,11.43
2022-10-30T03:05:46.062Z,11.41
2022-10-30T03:06:47.665Z,11.40
2022-10-30T03:07:49.272Z,11.37
2022-10-30T03:08:51.213Z,11.37
2022-10-30T03:09:54.313Z,11.39
2022-10-30T03:11:08.388Z,11.35
2022-10-30T03:12:10.011Z,11.32
2022-10-30T03:13:11.633Z,11.29
2022-10-30T03:14:13.417Z,11.29
2022-10-30T03:15:15.252Z,11.28
2022-10-30T03:16:22.828Z,11.26
2022-10-30T03:17:24.488Z,11.24
2022-10-30T03:18:26.133Z,11.24
2022-10-30T03:19:27.752Z,11.21
2022-10-30T03:20:29.420Z,11.18
2022-10-30T03:21:31.091Z,11.16
2022-10-30T03:22:32.712Z,11.14
2022-10-30T03:23:35.116Z,11.16
2022-10-30T03:24:36.773Z,11.14
2022-10-30T03:25:38.361Z,11.12
2022-10-30T03:26:40.062Z,11.12
2022-10-30T03:27:41.658Z,11.11
2022-10-30T03:28:43.659Z,11.12
2022-10-30T03:29:45.240Z,11.11
2022-10-30T03:30:47.276Z,11.09
2022-10-30T03:31:48.921Z,11.12
2022-10-30T03:32:50.473Z,11.10
2022-10-30T03:33:52.071Z,11.08
2022-10-30T03:34:53.646Z,11.08
2022-10-30T03:35:55.800Z,11.05
2022-10-30T03:36:57.355Z,11.04
2022-10-30T03:37:58.949Z,11.04
2022-10-30T03:39:00.516Z,11.03
2022-10-30T03:40:02.187Z,11.03
2022-10-30T03:41:04.944Z,11.02
2022-10-30T03:42:06.630Z,11.00
2022-10-30T03:43:08.359Z,10.99
2022-10-30T03:44:09.989Z,11.01
2022-10-30T03:45:11.531Z,10.98
2022-10-30T03:46:13.229Z,10.98
2022-10-30T03:47:14.916Z,10.97
2022-10-30T03:48:17.980Z,10.94
2022-10-30T03:49:19.607Z,10.93
2022-10-30T03:50:21.112Z,10.89
2022-10-30T03:51:22.708Z,10.90
2022-10-30T03:52:24.264Z,10.90
2022-10-30T03:53:28.433Z,10.85
2022-10-30T03:54:30.067Z,10.82
2022-10-30T03:55:31.799Z,10.83
2022-10-30T03:56:33.310Z,10.83
2022-10-30T03:57:38.326Z,10.82
2022-10-30T03:58:39.852Z,10.81
2022-10-30T03:59:41.433Z,10.83
2022-10-30T04:00:43.180Z,10.82
2022-10-30T04:01:44.955Z,10.81
2022-10-30T04:02:48.513Z,10.81
2022-10-30T04:03:50.180Z,10.80
2022-10-30T04:04:51.916Z,10.79
2022-10-30T04:05:53.659Z,10.76
2022-10-30T04:06:55.257Z,10.74
2022-10-30T04:07:58.913Z,10.71
2022-10-30T04:09:00.490Z,10.73
2022-10-30T04:10:02.089Z,10.74
2022-10-30T04:11:03.906Z,10.72
2022-10-30T04:12:05.629Z,10.72
2022-10-30T04:13:07.734Z,10.76
2022-10-30T04:14:09.281Z,10.74
2022-10-30T04:15:10.957Z,10.77
2022-10-30T04:16:12.678Z,10.78
2022-10-30T04:17:14.304Z,10.78
2022-10-30T04:18:17.081Z,10.78
2022-10-30T04:19:18.774Z,10.78
2022-10-30T04:20:21.915Z,10.76
2022-10-30T04:21:23.547Z,10.76
2022-10-30T04:22:25.575Z,10.75
2022-10-30T04:23:27.236Z,10.73
2022-10-30T04:24:28.850Z,10.72
2022-10-30T04:25:31.587Z,10.70
2022-10-30T04:26:33.508Z,10.68
2022-10-30T04:27:42.254Z,10.67
2022-10-30T04:28:43.906Z,10.65
2022-10-30T04:29:45.494Z,10.60
2022-10-30T04:30:47.678Z,10.59
2022-10-30T04:31:49.308Z,10.61
2022-10-30T04:32:58.010Z,10.57
2022-10-30T04:34:00.086Z,10.55
2022-10-30T04:35:01.801Z,10.59
2022-10-30T04:36:03.657Z,10.55
2022-10-30T04:37:06.582Z,10.54
2022-10-30T04:38:11.161Z,10.52
2022-10-30T04:39:12.781Z,10.53
2022-10-30T04:40:14.362Z,10.51
2022-10-30T04:41:15.893Z,10.48
2022-10-30T04:42:18.774Z,10.45
2022-10-30T04:43:20.675Z,10.44
2022-10-30T04:44:22.221Z,10.43
2022-10-30T04:45:24.360Z,10.42
2022-10-30T04:46:25.995Z,10.40
2022-10-30T04:47:27.584Z,10.36
2022-10-30T04:48:29.135Z,10.37
2022-10-30T04:49:30.698Z,10.36
2022-10-30T04:50:34.581Z,10.33
2022-10-30T04:51:36.276Z,10.30
2022-10-30T04:52:38.899Z,10.29
2022-10-30T04:53:40.585Z,10.26
2022-10-30T04:54:42.180Z,10.26
2022-10-30T04:55:44.686Z,10.25
2022-10-30T04:56:46.301Z,10.11
2022-10-30T04:57:47.840Z,10.24
2022-10-30T04:58:49.648Z,10.22
2022-10-30T04:59:51.240Z,10.23
2022-10-30T05:00:53.020Z,10.20
2022-10-30T05:01:54.793Z,10.07
2022-10-30T05:02:58.969Z,10.21
2022-10-30T05:04:00.579Z,10.20
2022-10-30T05:05:02.240Z,10.19
2022-10-30T05:06:13.325Z,10.16
2022-10-30T05:07:16.169Z,10.17
2022-10-30T05:08:17.868Z,10.16
2022-10-30T05:09:19.464Z,10.15
2022-10-30T05:10:21.084Z,10.17
2022-10-30T05:11:22.886Z,10.14
2022-10-30T05:12:24.470Z,10.17
2022-10-30T05:13:26.072Z,10.16
2022-10-30T05:14:31.479Z,10.14
2022-10-30T05:15:33.181Z,10.11
2022-10-30T05:16:34.947Z,10.09
2022-10-30T05:17:36.518Z,10.11
2022-10-30T05:18:38.257Z,10.11
2022-10-30T05:19:39.835Z,10.09
2022-10-30T05:20:41.481Z,10.11
2022-10-30T05:21:43.207Z,10.12
2022-10-30T05:22:44.739Z,10.14
2022-10-30T05:23:46.297Z,10.14
2022-10-30T05:24:47.807Z,10.14
2022-10-30T05:25:49.390Z,10.18
2022-10-30T05:26:50.985Z,10.24
2022-10-30T05:28:01.871Z,10.28
2022-10-30T05:29:03.577Z,10.29
2022-10-30T05:30:05.934Z,10.37
2022-10-30T05:31:07.574Z,10.39
2022-10-30T05:32:09.163Z,10.40
2022-10-30T05:33:12.502Z,10.37
2022-10-30T05:34:14.381Z,10.39
2022-10-30T05:35:16.111Z,10.38
2022-10-30T05:36:17.815Z,10.34
2022-10-30T05:37:19.314Z,10.36
2022-10-30T05:38:20.962Z,10.37
2022-10-30T05:39:22.717Z,10.43
2022-10-30T05:40:24.840Z,10.43
2022-10-30T05:41:26.382Z,10.49
2022-10-30T05:42:27.956Z,10.53
2022-10-30T05:43:29.495Z,10.57
2022-10-30T05:44:58.788Z,10.58
2022-10-30T05:45:52.651Z,10.61
2022-10-30T05:46:57.251Z,10.60
2022-10-30T05:48:01.397Z,10.65
2022-10-30T05:49:03.963Z,10.68
2022-10-30T05:50:06.248Z,10.74
2022-10-30T05:51:08.503Z,10.78
2022-10-30T05:52:10.033Z,10.89
2022-10-30T05:53:11.670Z,10.94
2022-10-30T05:54:13.324Z,10.84
2022-10-30T05:55:15.016Z,10.88
2022-10-30T05:56:16.636Z,10.86
2022-10-30T05:57:18.415Z,10.87
2022-10-30T05:58:20.011Z,10.85
2022-10-30T05:59:21.573Z,10.86
2022-10-30T06:00:23.180Z,10.83
2022-10-30T06:01:25.028Z,10.75
2022-10-30T06:02:26.819Z,10.74
2022-10-30T06:03:28.451Z,10.72
2022-10-30T06:04:30.038Z,10.71
2022-10-30T06:05:33.645Z,10.69
2022-10-30T06:06:35.185Z,10.65
2022-10-30T06:07:36.820Z,10.63
2022-10-30T06:08:38.470Z,10.61
2022-10-30T06:09:40.069Z,10.57
2022-10-30T06:10:42.057Z,10.51
2022-10-30T06:11:43.643Z,10.50
2022-10-30T06:12:54.814Z,10.41
2022-10-30T06:13:56.585Z,10.46
2022-10-30T06:14:58.149Z,10.42
2022-10-30T06:15:59.743Z,10.33
2022-10-30T06:17:01.386Z,10.37
2022-10-30T06:18:03.209Z,10.35
2022-10-30T06:19:04.892Z,10.33
2022-10-30T06:20:06.786Z,10.30
2022-10-30T06:21:08.393Z,10.30
2022-10-30T06:22:09.943Z,10.31
2022-10-30T06:23:11.760Z,10.32
2022-10-30T06:24:14.367Z,10.35
2022-10-30T06:25:16.148Z,10.38
2022-10-30T06:26:17.700Z,10.40
2022-10-30T06:27:19.244Z,10.43
2022-10-30T06:28:21.088Z,10.43
2022-10-30T06:29:22.734Z,10.44
2022-10-30T06:30:25.095Z,10.43
2022-10-30T06:31:26.768Z,10.46
2022-10-30T06:32:28.367Z,10.45
2022-10-30T06:33:33.020Z,10.44
2022-10-30T06:34:34.699Z,10.44
2022-10-30T06:35:36.407Z,10.47
2022-10-30T06:36:38.283Z,10.47
2022-10-30T06:37:46.515Z,10.48
2022-10-30T06:38:49.557Z,10.49
2022-10-30T06:39:51.249Z,10.50
2022-10-30T06:40:52.890Z,10.49
2022-10-30T06:41:54.547Z,10.52
2022-10-30T06:42:57.023Z,10.53
2022-10-30T06:43:58.933Z,10.48
2022-10-30T06:45:00.622Z,10.51
2022-10-30T06:46:02.259Z,10.51
2022-10-30T06:47:03.992Z,10.50
2022-10-30T06:48:05.937Z,10.54
2022-10-30T06:49:07.587Z,10.59
2022-10-30T06:50:11.776Z,10.66
2022-10-30T06:51:16.304Z,10.71
2022-10-30T06:52:23.008Z,10.76
2022-10-30T06:53:25.140Z,10.82
2022-10-30T06:54:26.709Z,10.87
2022-10-30T06:55:28.371Z,10.88
2022-10-30T06:56:29.975Z,10.97
2022-10-30T06:57:31.629Z,11.02
2022-10-30T06:58:38.915Z,11.04
2022-10-30T06:59:40.536Z,11.08
2022-10-30T07:00:42.170Z,11.11
2022-10-30T07:01:43.868Z,11.16
2022-10-30T07:02:56.274Z,11.20
2022-10-30T07:03:58.229Z,11.23
2022-10-30T07:04:59.905Z,11.25
2022-10-30T07:06:01.634Z,11.28
2022-10-30T07:07:03.960Z,11.33
2022-10-30T07:08:05.667Z,11.38
2022-10-30T07:09:07.269Z,11.49
2022-10-30T07:10:09.301Z,11.58
2022-10-30T07:11:10.870Z,11.68
2022-10-30T07:12:12.701Z,11.75
2022-10-30T07:13:14.455Z,11.85
2022-10-30T07:14:16.031Z,11.92
2022-10-30T07:15:17.614Z,11.97
2022-10-30T07:16:19.139Z,12.01
2022-10-30T07:17:20.920Z,12.11
2022-10-30T07:18:22.478Z,12.27
2022-10-30T07:19:24.485Z,12.37
2022-10-30T07:20:28.213Z,12.49
2022-10-30T07:21:29.962Z,12.67
2022-10-30T07:22:31.517Z,12.69
2022-10-30T07:23:33.285Z,12.82
2022-10-30T07:24:34.906Z,12.90
2022-10-30T07:25:36.587Z,12.96
2022-10-30T07:26:39.518Z,12.94
2022-10-30T07:27:49.439Z,13.14
2022-10-30T07:28:51.066Z,13.31
2022-10-30T07:29:52.591Z,13.46
2022-10-30T07:30:54.146Z,13.57
2022-10-30T07:32:03.053Z,13.75
2022-10-30T07:33:07.203Z,13.93
2022-10-30T07:34:08.814Z,14.01
2022-10-30T07:35:12.401Z,14.17
2022-10-30T07:36:15.047Z,14.49
2022-10-30T07:37:16.649Z,14.76
2022-10-30T07:38:18.400Z,15.04
2022-10-30T07:39:20.019Z,15.21
2022-10-30T07:40:22.859Z,15.26
2022-10-30T07:41:24.453Z,15.58
2022-10-30T07:42:26.292Z,15.94
2022-10-30T07:43:27.906Z,16.11
2022-10-30T07:44:29.541Z,16.41
2022-10-30T07:45:31.646Z,16.86
2022-10-30T07:46:33.244Z,17.43
2022-10-30T07:47:40.191Z,17.69
2022-10-30T07:48:41.875Z,17.67
2022-10-30T07:49:43.489Z,18.24
2022-10-30T07:50:45.209Z,18.68
2022-10-30T07:51:46.801Z,18.55
2022-10-30T07:52:48.579Z,19.02
2022-10-30T07:53:50.285Z,19.64
2022-10-30T07:54:51.889Z,20.03
2022-10-30T07:55:53.516Z,20.25
2022-10-30T07:56:55.223Z,20.65
2022-10-30T07:57:57.244Z,20.95
2022-10-30T07:58:59.318Z,21.18
2022-10-30T08:00:04.102Z,21.17
2022-10-30T08:01:06.444Z,21.16
2022-10-30T08:02:10.652Z,21.71
2022-10-30T08:03:12.677Z,22.36
2022-10-30T08:04:14.317Z,22.80
2022-10-30T08:05:16.036Z,23.13
2022-10-30T08:06:20.155Z,23.53
2022-10-30T08:07:24.834Z,23.87
2022-10-30T08:08:26.546Z,24.21
2022-10-30T08:09:28.153Z,24.45
2022-10-30T08:10:30.058Z,24.56
2022-10-30T08:11:32.455Z,24.95
2022-10-30T08:12:35.170Z,25.27
2022-10-30T08:13:36.797Z,25.41
2022-10-30T08:14:38.370Z,25.60
2022-10-30T08:15:40.077Z,25.67
2022-10-30T08:16:41.624Z,25.79
2022-10-30T08:17:45.530Z,25.92
2022-10-30T08:18:47.168Z,25.99
2022-10-30T08:19:49.437Z,26.13
2022-10-30T08:20:51.108Z,26.57
2022-10-30T08:21:56.094Z,26.71
2022-10-30T08:23:01.402Z,27.16
2022-10-30T08:24:03.369Z,27.47
2022-10-30T08:25:05.515Z,27.84
2022-10-30T08:26:07.218Z,28.06
2022-10-30T08:27:09.775Z,27.04
2022-10-30T08:28:11.798Z,27.01
2022-10-30T08:29:13.543Z,26.90
2022-10-30T08:30:15.123Z,26.55
2022-10-30T08:31:16.752Z,26.90
2022-10-30T08:32:18.420Z,27.46
2022-10-30T08:33:20.367Z,27.78
2022-10-30T08:34:22.414Z,28.09
2022-10-30T08:35:24.217Z,27.90
2022-10-30T08:36:25.918Z,28.28
2022-10-30T08:37:27.536Z,28.60
2022-10-30T08:38:29.531Z,29.19
2022-10-30T08:39:31.256Z,29.62
2022-10-30T08:40:32.976Z,29.68
2022-10-30T08:41:34.529Z,29.73
2022-10-30T08:42:36.513Z,29.99
2022-10-30T08:43:38.920Z,29.78
2022-10-30T08:44:40.555Z,29.95
2022-10-30T08:45:42.185Z,29.52
2022-10-30T08:46:43.788Z,29.84
2022-10-30T08:47:45.552Z,30.01
2022-10-30T08:48:47.418Z,30.04
2022-10-30T08:49:48.976Z,29.90
2022-10-30T08:50:50.569Z,30.19
2022-10-30T08:51:52.429Z,30.42
2022-10-30T08:52:54.853Z,30.46
2022-10-30T08:53:56.668Z,30.61
2022-10-30T08:54:58.282Z,30.93
2022-10-30T08:55:59.925Z,30.64
2022-10-30T08:57:02.309Z,30.72
2022-10-30T08:58:04.196Z,30.59
2022-10-30T08:59:05.899Z,31.00
2022-10-30T09:00:08.366Z,31.17
2022-10-30T09:01:10.109Z,31.40
2022-10-30T09:02:11.963Z,31.71
2022-10-30T09:03:13.848Z,31.80
2022-10-30T09:04:15.499Z,31.89
2022-10-30T09:05:17.915Z,31.89
2022-10-30T09:06:19.545Z,32.06
2022-10-30T09:07:21.138Z,32.17
2022-10-30T09:08:23.556Z,32.60
2022-10-30T09:09:25.172Z,32.69
2022-10-30T09:10:27.780Z,32.70
2022-10-30T09:11:29.401Z,32.65
2022-10-30T09:12:31.063Z,33.03
2022-10-30T09:13:32.739Z,33.24
2022-10-30T09:14:34.343Z,33.37
2022-10-30T09:15:36.056Z,33.06
2022-10-30T09:16:37.622Z,33.13
2022-10-30T09:17:39.147Z,33.19
2022-10-30T09:18:41.854Z,33.44
2022-10-30T09:19:43.542Z,33.79
2022-10-30T09:20:45.311Z,33.81
2022-10-30T09:21:46.943Z,33.81
2022-10-30T09:22:48.528Z,33.84
2022-10-30T09:23:50.091Z,33.81
2022-10-30T09:24:51.619Z,33.52
2022-10-30T09:25:57.979Z,33.71
2022-10-30T09:26:59.591Z,33.58
2022-10-30T09:28:01.229Z,33.06
2022-10-30T09:29:02.792Z,33.58
2022-10-30T09:30:05.005Z,33.49
2022-10-30T09:31:06.592Z,33.13
2022-10-30T09:32:10.137Z,33.51
2022-10-30T09:33:11.738Z,33.59
2022-10-30T09:34:13.500Z,34.08
2022-10-30T09:35:15.102Z,33.78
2022-10-30T09:36:21.255Z,34.03
2022-10-30T09:37:24.355Z,33.22
2022-10-30T09:38:26.000Z,33.71
2022-10-30T09:39:29.964Z,33.88
2022-10-30T09:40:31.695Z,34.17
2022-10-30T09:41:46.999Z,34.49
2022-10-30T09:42:51.281Z,34.16
2022-10-30T09:44:28.745Z,33.18
2022-10-30T09:45:30.830Z,33.12
2022-10-30T09:46:44.579Z,33.37
2022-10-30T09:48:05.108Z,33.02
2022-10-30T09:49:30.588Z,33.08
2022-10-30T09:50:46.866Z,33.65
2022-10-30T09:51:57.134Z,33.79
2022-10-30T09:53:06.966Z,31.59
2022-10-30T09:54:38.202Z,30.59
2022-10-30T09:55:45.565Z,31.96
2022-10-30T09:57:02.217Z,32.79
2022-10-30T09:58:25.685Z,33.32
2022-10-30T09:59:59.603Z,33.36
2022-10-30T10:01:09.683Z,33.72
2022-10-30T10:02:38.631Z,33.74
2022-10-30T10:04:07.647Z,33.89
2022-10-30T10:05:11.411Z,33.65
2022-10-30T10:06:18.649Z,33.54
2022-10-30T10:07:23.086Z,33.20
2022-10-30T10:09:03.406Z,33.53
2022-10-30T10:10:10.200Z,33.40
2022-10-30T10:11:19.058Z,33.86
2022-10-30T10:12:50.503Z,33.89
2022-10-30T10:13:58.710Z,34.06
2022-10-30T10:15:04.682Z,34.36
2022-10-30T10:16:17.653Z,34.84
2022-10-30T10:17:29.446Z,34.87
2022-10-30T10:18:46.768Z,35.03
2022-10-30T10:19:55.794Z,35.18
2022-10-30T10:21:03.796Z,35.09
2022-10-30T10:22:25.887Z,35.10
2022-10-30T10:23:35.638Z,34.46
2022-10-30T10:24:42.463Z,34.59
2022-10-30T10:25:52.671Z,34.28
2022-10-30T10:27:10.187Z,34.09
2022-10-30T10:28:27.431Z,34.13
2022-10-30T10:29:49.785Z,34.49
2022-10-30T10:31:11.108Z,34.71
2022-10-30T10:32:28.079Z,34.83
2022-10-30T10:33:47.571Z,34.28
2022-10-30T10:34:49.148Z,34.68
2022-10-30T10:36:07.439Z,35.09
2022-10-30T10:37:25.077Z,35.49
2022-10-30T10:38:51.939Z,34.96
2022-10-30T10:40:12.703Z,34.81
2022-10-30T10:41:32.896Z,34.96
2022-10-30T10:42:37.550Z,34.98
2022-10-30T10:44:08.327Z,34.78
2022-10-30T10:45:19.744Z,34.50
2022-10-30T10:47:05.879Z,34.13
2022-10-30T10:48:39.611Z,33.77
2022-10-30T10:50:13.536Z,33.25
2022-10-30T10:51:42.422Z,32.27
2022-10-30T10:52:52.637Z,32.00
2022-10-30T10:54:02.354Z,31.63
2022-10-30T10:55:16.107Z,32.06
2022-10-30T10:56:20.038Z,32.32
2022-10-30T10:57:27.597Z,32.31
2022-10-30T10:58:49.802Z,32.67
2022-10-30T10:59:58.757Z,31.68
2022-10-30T11:01:00.610Z,31.26
2022-10-30T11:02:05.424Z,30.89
2022-10-30T11:03:13.976Z,30.85
2022-10-30T11:04:32.071Z,30.90
2022-10-30T11:05:38.258Z,31.43
2022-10-30T11:06:43.108Z,31.35
2022-10-30T11:07:50.055Z,31.64
2022-10-30T11:08:54.460Z,32.02
2022-10-30T11:09:57.787Z,32.21
2022-10-30T11:11:02.669Z,32.75
2022-10-30T11:12:04.736Z,32.82
2022-10-30T11:13:06.592Z,32.71
2022-10-30T11:14:15.702Z,32.84
2022-10-30T11:15:35.044Z,33.07
2022-10-30T11:17:07.122Z,32.30
2022-10-30T11:18:10.195Z,32.05
2022-10-30T11:19:11.843Z,31.49
2022-10-30T11:20:20.957Z,31.44
2022-10-30T11:21:25.076Z,31.23
2022-10-30T11:22:35.966Z,31.40
2022-10-30T11:23:46.348Z,30.94
2022-10-30T11:24:47.943Z,30.99
2022-10-30T11:25:49.538Z,31.14
2022-10-30T11:26:51.183Z,31.03
2022-10-30T11:27:58.970Z,31.00
2022-10-30T11:29:29.707Z,30.41
2022-10-30T11:30:32.095Z,30.62
2022-10-30T11:31:38.019Z,30.91
2022-10-30T11:32:39.926Z,31.26
2022-10-30T11:33:41.636Z,30.41
2022-10-30T11:34:43.206Z,30.15
2022-10-30T11:35:44.767Z,30.20
2022-10-30T11:36:51.163Z,30.47
2022-10-30T11:38:13.275Z,30.96
2022-10-30T11:39:20.423Z,31.27
2022-10-30T11:40:23.662Z,31.10
2022-10-30T11:41:26.139Z,31.38
2022-10-30T11:42:27.774Z,31.47
2022-10-30T11:43:29.573Z,31.77
2022-10-30T11:44:51.924Z,31.83
2022-10-30T11:45:54.056Z,31.86
2022-10-30T11:46:56.500Z,31.56
2022-10-30T11:48:02.593Z,31.21
2022-10-30T11:49:05.043Z,31.06
2022-10-30T11:50:15.987Z,31.04
2022-10-30T11:51:31.538Z,31.18
2022-10-30T11:52:40.935Z,31.42
2022-10-30T11:53:49.043Z,31.43
2022-10-30T11:54:58.309Z,31.34
2022-10-30T11:56:01.605Z,31.44
2022-10-30T11:57:04.236Z,31.78
2022-10-30T11:58:10.040Z,31.63
2022-10-30T11:59:19.890Z,31.57
2022-10-30T12:00:24.258Z,31.75
2022-10-30T12:01:28.709Z,31.45
2022-10-30T12:02:39.889Z,31.80
2022-10-30T12:03:42.304Z,31.90
2022-10-30T12:04:43.946Z,31.78
2022-10-30T12:05:50.106Z,31.64
2022-10-30T12:07:13.878Z,31.58
2022-10-30T12:08:19.719Z,31.41
2022-10-30T12:09:22.596Z,31.11
2022-10-30T12:10:29.979Z,31.02
2022-10-30T12:11:34.036Z,30.94
2022-10-30T12:12:42.080Z,30.53
2022-10-30T12:13:43.771Z,30.06
2022-10-30T12:14:45.408Z,30.06
2022-10-30T12:15:49.842Z,30.05
2022-10-30T12:16:55.159Z,29.97
2022-10-30T12:18:06.082Z,29.99
2022-10-30T12:19:15.323Z,30.05
2022-10-30T12:20:17.357Z,30.03
2022-10-30T12:21:20.159Z,29.93
2022-10-30T12:22:41.750Z,29.81
2022-10-30T12:23:55.743Z,29.94
2022-10-30T12:25:01.742Z,30.12
2022-10-30T12:26:13.016Z,30.37
2022-10-30T12:27:21.322Z,30.56
2022-10-30T12:28:27.305Z,30.54
2022-10-30T12:31:18.545Z,30.43
2022-10-30T12:32:24.545Z,30.69
2022-10-30T12:33:34.252Z,30.67
2022-10-30T12:34:51.810Z,30.48
2022-10-30T12:35:59.083Z,30.43
2022-10-30T12:37:12.552Z,30.52
2022-10-30T12:38:22.178Z,30.60
2022-10-30T12:39:44.144Z,30.57
2022-10-30T12:41:00.753Z,29.29
2022-10-30T12:42:09.050Z,28.60
2022-10-30T12:43:26.324Z,27.98
2022-10-30T12:44:33.920Z,28.26
2022-10-30T12:45:45.066Z,28.55
2022-10-30T12:47:05.040Z,28.84
2022-10-30T12:48:09.756Z,29.14
2022-10-30T12:49:17.589Z,28.49
2022-10-30T12:50:30.023Z,28.63
2022-10-30T12:51:59.428Z,28.63
2022-10-30T12:53:18.796Z,27.53
2022-10-30T12:54:32.657Z,27.25
2022-10-30T12:55:38.613Z,26.65
2022-10-30T12:56:46.008Z,26.45
2022-10-30T12:58:12.326Z,26.40
2022-10-30T12:59:41.889Z,26.17
2022-10-30T13:01:13.865Z,26.04
2022-10-30T13:02:27.440Z,26.02
2022-10-30T13:03:36.229Z,26.30
2022-10-30T13:04:43.140Z,26.62
2022-10-30T13:07:11.068Z,26.32
2022-10-30T13:08:33.389Z,26.54
2022-10-30T13:09:40.687Z,26.90
2022-10-30T13:10:46.634Z,27.47
2022-10-30T13:11:57.115Z,27.75
2022-10-30T13:13:06.234Z,27.65
2022-10-30T13:14:15.133Z,27.11
2022-10-30T13:15:25.569Z,26.94
2022-10-30T13:16:29.527Z,27.02
2022-10-30T13:17:31.192Z,26.42
2022-10-30T13:18:33.725Z,25.90
2022-10-30T13:19:36.008Z,25.92
2022-10-30T13:20:39.927Z,25.88
2022-10-30T13:22:00.195Z,25.91
2022-10-30T13:23:12.083Z,25.63
2022-10-30T13:24:22.100Z,25.58
2022-10-30T13:25:40.621Z,25.28
2022-10-30T13:26:51.964Z,25.23
2022-10-30T13:28:26.688Z,25.23
2022-10-30T13:29:51.366Z,25.47
2022-10-30T13:31:06.580Z,25.32
2022-10-30T13:32:20.194Z,25.34
2022-10-30T13:33:31.558Z,25.30
2022-10-30T13:35:04.358Z,25.47
2022-10-30T13:36:15.356Z,25.91
2022-10-30T13:37:49.505Z,26.20
2022-10-30T13:38:56.941Z,25.95
2022-10-30T13:40:10.715Z,25.56
2022-10-30T13:41:24.189Z,25.04
2022-10-30T13:42:56.937Z,25.35
2022-10-30T13:44:01.431Z,25.54
2022-10-30T13:45:48.423Z,25.65
2022-10-30T13:46:56.038Z,25.86
2022-10-30T13:48:06.809Z,25.32
2022-10-30T13:49:14.623Z,24.94
2022-10-30T13:50:19.228Z,24.65
2022-10-30T13:51:35.364Z,24.88
2022-10-30T13:52:41.070Z,24.94
2022-10-30T13:53:46.628Z,25.38
2022-10-30T13:55:01.665Z,25.69
2022-10-30T13:56:04.878Z,26.02
2022-10-30T13:57:15.530Z,26.23
2022-10-30T13:58:30.400Z,26.30
2022-10-30T13:59:47.252Z,26.53
2022-10-30T14:01:24.041Z,27.33
2022-10-30T14:02:51.919Z,27.30
2022-10-30T14:03:53.546Z,27.91
2022-10-30T14:05:13.001Z,27.91
2022-10-30T14:06:27.759Z,27.00
2022-10-30T14:07:45.373Z,26.42
2022-10-30T14:08:58.322Z,25.93
2022-10-30T14:10:08.659Z,26.07
2022-10-30T14:11:13.309Z,26.35
2022-10-30T14:12:50.832Z,26.13
2022-10-30T14:13:58.189Z,25.32